createdAt,value
2023-05-18T00:00:26.375Z,99518.28
2023-05-18T00:02:54.650Z,99522.13
2023-05-18T00:05:22.547Z,99520.25
2023-05-18T00:07:50.289Z,99521.97
2023-05-18T00:10:18.362Z,99519.69
2023-05-18T00:12:46.106Z,99518.59
2023-05-18T00:15:13.814Z,99520.06
2023-05-18T00:17:41.750Z,99521.81
2023-05-18T00:20:10.084Z,99529.88
2023-05-18T00:22:38.479Z,99526.91
2023-05-18T00:25:06.657Z,99525.06
2023-05-18T00:27:34.567Z,99531.38
2023-05-18T00:30:02.625Z,99524.41
2023-05-18T00:32:30.620Z,99522.81
2023-05-18T00:34:58.341Z,99525.16
2023-05-18T00:37:26.084Z,99531.00
2023-05-18T00:39:54.087Z,99522.47
2023-05-18T00:42:21.783Z,99530.56
2023-05-18T00:44:49.536Z,99523.69
2023-05-18T00:47:17.700Z,99526.78
2023-05-18T00:49:45.384Z,99531.50
2023-05-18T00:52:13.027Z,99532.16
2023-05-18T00:54:42.420Z,99523.25
2023-05-18T00:57:10.121Z,99523.13
2023-05-18T00:59:37.858Z,99523.75
2023-05-18T01:02:06.023Z,99527.28
2023-05-18T01:04:33.676Z,99524.59
2023-05-18T01:07:01.410Z,99531.38
2023-05-18T01:09:29.406Z,99533.78
2023-05-18T01:12:06.178Z,99539.94
2023-05-18T01:14:42.025Z,99537.63
2023-05-18T01:17:12.612Z,99534.28
2023-05-18T01:20:02.368Z,99535.66
2023-05-18T01:22:49.855Z,99542.72
2023-05-18T01:25:40.746Z,99535.87
2023-05-18T01:28:14.289Z,99548.72
2023-05-18T01:30:43.181Z,99547.75
2023-05-18T01:33:12.375Z,99560.69
2023-05-18T01:35:40.290Z,99562.03
2023-05-18T01:38:08.282Z,99558.06
2023-05-18T01:40:45.278Z,99564.28
2023-05-18T01:43:16.477Z,99562.22
2023-05-18T01:45:47.555Z,99573.00
2023-05-18T01:48:19.331Z,99568.16
2023-05-18T01:50:48.518Z,99575.63
2023-05-18T01:53:39.558Z,99569.34
2023-05-18T01:56:09.187Z,99570.78
2023-05-18T01:58:38.025Z,99571.84
2023-05-18T02:01:05.805Z,99575.00
2023-05-18T02:03:33.836Z,99582.72
2023-05-18T02:06:02.056Z,99583.22
2023-05-18T02:08:30.101Z,99582.00
2023-05-18T02:10:58.445Z,99577.44
2023-05-18T02:13:26.097Z,99578.75
2023-05-18T02:15:54.428Z,99580.75
2023-05-18T02:18:22.486Z,99580.16
2023-05-18T02:20:50.209Z,99576.97
2023-05-18T02:23:18.025Z,99575.88
2023-05-18T02:25:46.048Z,99577.75
2023-05-18T02:28:14.203Z,99591.09
2023-05-18T02:30:42.241Z,99581.94
2023-05-18T02:33:10.004Z,99580.28
2023-05-18T02:35:37.818Z,99585.34
2023-05-18T02:38:05.882Z,99583.34
2023-05-18T02:40:33.618Z,99585.34
2023-05-18T02:43:01.498Z,99579.06
2023-05-18T02:45:30.046Z,99594.03
2023-05-18T02:47:58.198Z,99588.69
2023-05-18T02:50:26.079Z,99578.50
2023-05-18T02:52:54.121Z,99586.94
2023-05-18T02:55:21.863Z,99582.25
2023-05-18T02:57:50.163Z,99585.66
2023-05-18T03:00:18.719Z,99591.53
2023-05-18T03:02:46.638Z,99594.03
2023-05-18T03:05:14.392Z,99587.13
2023-05-18T03:07:42.506Z,99590.50
2023-05-18T03:10:10.250Z,99597.47
2023-05-18T03:12:37.885Z,99605.56
2023-05-18T03:15:06.275Z,99600.59
2023-05-18T03:17:34.574Z,99605.09
2023-05-18T03:20:02.846Z,99606.78
2023-05-18T03:22:31.093Z,99610.34
2023-05-18T03:24:58.695Z,99606.97
2023-05-18T03:27:26.568Z,99608.75
2023-05-18T03:29:55.008Z,99607.16
2023-05-18T03:32:23.108Z,99607.09
2023-05-18T03:34:51.444Z,99610.34
2023-05-18T03:37:21.301Z,99614.31
2023-05-18T03:39:49.021Z,99621.19
2023-05-18T03:42:17.572Z,99629.19
2023-05-18T03:44:46.028Z,99622.81
2023-05-18T03:47:13.654Z,99628.28
2023-05-18T03:49:41.718Z,99627.59
2023-05-18T03:52:09.782Z,99630.19
2023-05-18T03:54:37.467Z,99628.69
2023-05-18T03:57:07.079Z,99625.19
2023-05-18T03:59:35.013Z,99633.25
2023-05-18T04:02:02.774Z,99630.50
2023-05-18T04:04:30.989Z,99627.41
2023-05-18T04:06:58.610Z,99632.88
2023-05-18T04:09:26.741Z,99637.25
2023-05-18T04:11:55.407Z,99639.84
2023-05-18T04:14:23.095Z,99642.34
2023-05-18T04:16:51.218Z,99639.44
2023-05-18T04:19:19.231Z,99641.34
2023-05-18T04:21:46.829Z,99645.22
2023-05-18T04:24:16.866Z,99646.72
2023-05-18T04:26:44.902Z,99658.16
2023-05-18T04:29:12.534Z,99654.19
2023-05-18T04:31:40.325Z,99660.53
2023-05-18T04:34:08.593Z,99658.75
2023-05-18T04:36:36.578Z,99658.66
2023-05-18T04:39:04.376Z,99667.72
2023-05-18T04:41:32.393Z,99668.91
2023-05-18T04:44:00.424Z,99669.03
2023-05-18T04:46:28.247Z,99671.03
2023-05-18T04:48:56.581Z,99677.28
2023-05-18T04:51:24.980Z,99673.87
2023-05-18T04:53:53.124Z,99668.81
2023-05-18T04:56:22.211Z,99662.94
2023-05-18T04:58:49.943Z,99675.47
2023-05-18T05:01:18.574Z,99678.47
2023-05-18T05:03:46.677Z,99677.38
2023-05-18T05:06:14.430Z,99677.28
2023-05-18T05:08:42.180Z,99676.56
2023-05-18T05:11:10.172Z,99678.56
2023-05-18T05:13:37.853Z,99686.03
2023-05-18T05:16:06.457Z,99682.28
2023-05-18T05:18:34.479Z,99684.34
2023-05-18T05:21:02.507Z,99698.31
2023-05-18T05:23:30.279Z,99685.75
2023-05-18T05:25:58.509Z,99693.31
2023-05-18T05:28:27.229Z,99696.41
2023-05-18T05:30:55.222Z,99695.22
2023-05-18T05:33:23.443Z,99696.69
2023-05-18T05:35:51.280Z,99698.81
2023-05-18T05:38:18.997Z,99691.91
2023-05-18T05:40:46.976Z,99705.59
2023-05-18T05:43:14.694Z,99701.66
2023-05-18T05:45:43.176Z,99710.22
2023-05-18T05:48:13.868Z,99714.75
2023-05-18T05:50:41.856Z,99708.34
2023-05-18T05:53:09.609Z,99705.88
2023-05-18T05:55:37.657Z,99707.47
2023-05-18T05:58:06.267Z,99713.66
2023-05-18T06:00:34.051Z,99716.44
2023-05-18T06:03:02.823Z,99711.47
2023-05-18T06:05:31.214Z,99713.03
2023-05-18T06:07:59.016Z,99717.25
2023-05-18T06:10:27.444Z,99722.91
2023-05-18T06:12:55.405Z,99720.31
2023-05-18T06:15:23.505Z,99722.12
2023-05-18T06:17:51.820Z,99723.91
2023-05-18T06:20:19.683Z,99729.97
2023-05-18T06:22:47.760Z,99723.31
2023-05-18T06:25:16.111Z,99743.16
2023-05-18T06:27:44.020Z,99733.00
2023-05-18T06:30:13.721Z,99739.84
2023-05-18T06:32:41.853Z,99739.84
2023-05-18T06:35:10.246Z,99736.63
2023-05-18T06:37:37.934Z,99736.84
2023-05-18T06:40:07.428Z,99744.03
2023-05-18T06:42:35.214Z,99748.59
2023-05-18T06:45:04.088Z,99742.19
2023-05-18T06:47:35.058Z,99747.09
2023-05-18T06:50:02.815Z,99752.75
2023-05-18T06:52:30.581Z,99753.59
2023-05-18T06:54:58.555Z,99760.72
2023-05-18T06:57:27.227Z,99757.41
2023-05-18T06:59:55.391Z,99758.53
2023-05-18T07:02:23.311Z,99762.81
2023-05-18T07:04:50.995Z,99763.72
2023-05-18T07:07:18.656Z,99763.22
2023-05-18T07:09:46.625Z,99763.47
2023-05-18T07:12:14.320Z,99764.25
2023-05-18T07:14:42.023Z,99771.34
2023-05-18T07:17:10.024Z,99770.06
2023-05-18T07:19:37.601Z,99773.00
2023-05-18T07:22:05.242Z,99776.81
2023-05-18T07:24:33.242Z,99772.94
2023-05-18T07:27:01.150Z,99780.03
2023-05-18T07:29:29.853Z,99784.62
2023-05-18T07:31:58.078Z,99785.41
2023-05-18T07:34:25.788Z,99784.69
2023-05-18T07:36:53.794Z,99790.97
2023-05-18T07:39:24.333Z,99791.97
2023-05-18T07:41:52.019Z,99790.50
2023-05-18T07:44:19.742Z,99793.75
2023-05-18T07:46:47.709Z,99791.22
2023-05-18T07:49:15.392Z,99791.69
2023-05-18T07:51:43.140Z,99798.25
2023-05-18T07:54:11.233Z,99794.00
2023-05-18T07:56:38.903Z,99790.78
2023-05-18T07:59:07.640Z,99798.06
2023-05-18T08:01:35.613Z,99792.59
2023-05-18T08:04:04.265Z,99798.88
2023-05-18T08:06:32.060Z,99797.47
2023-05-18T08:08:59.725Z,99806.53
2023-05-18T08:11:27.683Z,99803.53
2023-05-18T08:13:55.610Z,99805.88
2023-05-18T08:16:23.360Z,99798.72
2023-05-18T08:18:51.509Z,99809.84
2023-05-18T08:21:19.250Z,99809.50
2023-05-18T08:23:47.202Z,99803.22
2023-05-18T08:26:15.264Z,99813.66
2023-05-18T08:28:42.939Z,99819.25
2023-05-18T08:31:10.575Z,99810.97
2023-05-18T08:33:38.696Z,99814.94
2023-05-18T08:36:06.706Z,99814.03
2023-05-18T08:38:35.235Z,99812.88
2023-05-18T08:41:15.401Z,99807.69
2023-05-18T08:43:46.467Z,99817.37
2023-05-18T08:46:20.896Z,99818.22
2023-05-18T08:48:52.099Z,99819.31
2023-05-18T08:51:21.158Z,99817.78
2023-05-18T08:53:53.445Z,99816.28
2023-05-18T08:56:23.297Z,99817.53
2023-05-18T08:58:54.713Z,99820.41
2023-05-18T09:01:25.189Z,99825.47
2023-05-18T09:03:53.121Z,99821.81
2023-05-18T09:06:23.496Z,99821.09
2023-05-18T09:08:54.047Z,99826.84
2023-05-18T09:11:26.386Z,99822.81
2023-05-18T09:13:54.981Z,99824.66
2023-05-18T09:16:22.772Z,99827.06
2023-05-18T09:18:50.565Z,99818.91
2023-05-18T09:21:18.690Z,99819.28
2023-05-18T09:23:47.458Z,99820.88
2023-05-18T09:26:15.272Z,99823.38
2023-05-18T09:28:43.621Z,99822.12
2023-05-18T09:31:17.739Z,99827.81
2023-05-18T09:33:46.416Z,99828.78
2023-05-18T09:36:14.876Z,99817.66
2023-05-18T09:38:45.045Z,99830.09
2023-05-18T09:41:15.507Z,99830.66
2023-05-18T09:43:48.153Z,99826.91
2023-05-18T09:46:16.287Z,99828.66
2023-05-18T09:48:47.595Z,99830.56
2023-05-18T09:51:15.405Z,99823.09
2023-05-18T09:54:03.789Z,99830.44
2023-05-18T09:56:31.956Z,99831.53
2023-05-18T09:59:08.474Z,99833.28
2023-05-18T10:01:36.207Z,99840.53
2023-05-18T10:04:05.564Z,99837.72
2023-05-18T10:06:33.522Z,99838.88
2023-05-18T10:09:02.606Z,99836.78
2023-05-18T10:11:35.024Z,99835.69
2023-05-18T10:14:03.948Z,99830.56
2023-05-18T10:16:34.405Z,99825.16
2023-05-18T10:19:03.680Z,99834.56
2023-05-18T10:21:34.101Z,99838.53
2023-05-18T10:24:03.977Z,99835.19
2023-05-18T10:26:35.273Z,99836.94
2023-05-18T10:29:04.400Z,99845.50
2023-05-18T10:31:32.924Z,99844.12
2023-05-18T10:34:00.674Z,99850.47
2023-05-18T10:36:30.245Z,99844.25
2023-05-18T10:39:00.146Z,99841.47
2023-05-18T10:41:29.335Z,99850.06
2023-05-18T10:44:00.083Z,99846.19
2023-05-18T10:46:28.071Z,99843.94
2023-05-18T10:48:57.534Z,99847.44
2023-05-18T10:51:26.236Z,99846.81
2023-05-18T10:53:56.227Z,99847.91
2023-05-18T10:56:24.127Z,99851.31
2023-05-18T10:58:52.377Z,99844.00
2023-05-18T11:01:20.336Z,99853.84
2023-05-18T11:03:49.061Z,99853.22
2023-05-18T11:06:24.054Z,99850.91
2023-05-18T11:08:52.122Z,99850.34
2023-05-18T11:11:23.518Z,99844.31
2023-05-18T11:13:51.348Z,99852.81
2023-05-18T11:16:20.047Z,99843.31
2023-05-18T11:18:52.124Z,99850.22
2023-05-18T11:21:31.508Z,99860.12
2023-05-18T11:24:30.250Z,99865.25
2023-05-18T11:27:08.993Z,99861.44
2023-05-18T11:29:44.544Z,99860.50
2023-05-18T11:32:29.389Z,99862.25
2023-05-18T11:34:59.847Z,99868.31
2023-05-18T11:37:40.362Z,99858.59
2023-05-18T11:40:12.200Z,99869.72
2023-05-18T11:42:40.175Z,99867.00
2023-05-18T11:45:11.648Z,99868.72
2023-05-18T11:47:40.526Z,99866.88
2023-05-18T11:50:11.939Z,99856.72
2023-05-18T11:52:48.061Z,99868.50
2023-05-18T11:55:16.746Z,99868.44
2023-05-18T11:57:46.613Z,99863.81
2023-05-18T12:00:14.692Z,99879.09
2023-05-18T12:02:44.172Z,99872.00
2023-05-18T12:05:12.769Z,99878.44
2023-05-18T12:07:41.879Z,99877.75
2023-05-18T12:10:14.673Z,99873.94
2023-05-18T12:12:43.385Z,99879.13
2023-05-18T12:15:12.252Z,99878.06
2023-05-18T12:17:43.014Z,99880.03
2023-05-18T12:20:18.935Z,99879.69
2023-05-18T12:22:49.036Z,99882.00
2023-05-18T12:25:17.393Z,99875.72
2023-05-18T12:27:46.173Z,99887.00
2023-05-18T12:30:17.240Z,99880.88
2023-05-18T12:32:47.692Z,99882.59
2023-05-18T12:35:15.631Z,99884.34
2023-05-18T12:37:46.633Z,99883.97
2023-05-18T12:40:19.062Z,99882.97
2023-05-18T12:42:58.159Z,99878.50
2023-05-18T12:45:28.102Z,99878.66
2023-05-18T12:47:56.239Z,99881.28
2023-05-18T12:50:24.896Z,99876.09
2023-05-18T12:52:52.906Z,99886.09
2023-05-18T12:55:21.442Z,99881.00
2023-05-18T12:58:20.116Z,99873.06
2023-05-18T13:00:48.917Z,99864.94
2023-05-18T13:03:18.468Z,99872.59
2023-05-18T13:06:02.206Z,99871.50
2023-05-18T13:08:32.087Z,99871.47
2023-05-18T13:11:12.653Z,99874.81
2023-05-18T13:14:00.930Z,99882.59
2023-05-18T13:16:28.788Z,99881.50
2023-05-18T13:19:05.062Z,99878.97
2023-05-18T13:21:33.951Z,99883.91
2023-05-18T13:24:03.107Z,99882.47
2023-05-18T13:26:30.942Z,99884.84
2023-05-18T13:28:59.146Z,99881.63
2023-05-18T13:31:27.422Z,99879.78
2023-05-18T13:33:55.550Z,99887.63
2023-05-18T13:36:23.288Z,99890.31
2023-05-18T13:38:51.297Z,99895.00
2023-05-18T13:41:18.978Z,99891.56
2023-05-18T13:43:46.638Z,99893.59
2023-05-18T13:46:14.554Z,99889.31
2023-05-18T13:48:42.245Z,99895.91
2023-05-18T13:51:09.897Z,99896.22
2023-05-18T13:53:38.834Z,99897.41
2023-05-18T13:56:08.513Z,99892.78
2023-05-18T13:58:36.134Z,99898.81
2023-05-18T14:01:04.535Z,99899.28
2023-05-18T14:03:32.725Z,99899.75
2023-05-18T14:06:02.054Z,99899.16
2023-05-18T14:08:29.981Z,99904.00
2023-05-18T14:10:58.184Z,99909.50
2023-05-18T14:13:25.845Z,99906.41
2023-05-18T14:15:53.432Z,99907.22
2023-05-18T14:18:21.359Z,99910.94
2023-05-18T14:20:49.073Z,99908.78
2023-05-18T14:23:16.768Z,99906.56
2023-05-18T14:25:44.865Z,99908.22
2023-05-18T14:28:12.528Z,99917.72
2023-05-18T14:30:40.214Z,99908.16
2023-05-18T14:33:08.284Z,99919.44
2023-05-18T14:35:35.993Z,99920.09
2023-05-18T14:38:03.697Z,99912.31
2023-05-18T14:40:31.877Z,99914.50
2023-05-18T14:42:59.648Z,99921.81
2023-05-18T14:45:27.371Z,99912.59
2023-05-18T14:47:55.447Z,99911.34
2023-05-18T14:50:23.199Z,99914.97
2023-05-18T14:52:50.866Z,99916.41
2023-05-18T14:55:18.812Z,99925.50
2023-05-18T14:57:46.482Z,99921.41
2023-05-18T15:00:14.672Z,99922.16
2023-05-18T15:02:42.805Z,99921.34
2023-05-18T15:05:10.488Z,99920.69
2023-05-18T15:07:38.328Z,99927.13
2023-05-18T15:10:07.044Z,99924.28
2023-05-18T15:12:34.665Z,99923.72
2023-05-18T15:15:02.545Z,99920.22
2023-05-18T15:17:30.572Z,99924.75
2023-05-18T15:19:58.390Z,99921.00
2023-05-18T15:22:26.186Z,99923.88
2023-05-18T15:24:54.309Z,99923.09
2023-05-18T15:27:21.988Z,99922.84
2023-05-18T15:29:50.041Z,99923.91
2023-05-18T15:32:18.972Z,99923.88
2023-05-18T15:34:48.875Z,99922.59
2023-05-18T15:37:16.621Z,99926.22
2023-05-18T15:39:44.911Z,99923.97
2023-05-18T15:42:12.595Z,99921.91
2023-05-18T15:44:40.194Z,99920.81
2023-05-18T15:47:08.496Z,99919.50
2023-05-18T15:49:36.153Z,99926.19
2023-05-18T15:52:08.232Z,99927.34
2023-05-18T15:54:39.242Z,99925.28
2023-05-18T15:57:07.163Z,99928.16
2023-05-18T15:59:35.441Z,99934.09
2023-05-18T16:02:03.503Z,99937.44
2023-05-18T16:04:31.520Z,99934.78
2023-05-18T16:06:59.113Z,99935.94
2023-05-18T16:09:26.784Z,99925.13
2023-05-18T16:11:54.826Z,99929.09
2023-05-18T16:14:22.513Z,99929.41
2023-05-18T16:16:50.193Z,99929.25
2023-05-18T16:19:18.427Z,99930.81
2023-05-18T16:21:46.542Z,99925.53
2023-05-18T16:24:14.270Z,99934.66
2023-05-18T16:26:43.322Z,99931.44
2023-05-18T16:29:10.993Z,99938.78
2023-05-18T16:31:38.824Z,99937.50
2023-05-18T16:34:06.828Z,99931.97
2023-05-18T16:36:34.552Z,99935.62
2023-05-18T16:39:02.449Z,99937.47
2023-05-18T16:41:30.407Z,99935.91
2023-05-18T16:43:58.165Z,99942.44
2023-05-18T16:46:28.945Z,99936.84
2023-05-18T16:48:57.171Z,99943.56
2023-05-18T16:51:26.582Z,99941.81
2023-05-18T16:53:55.301Z,99935.28
2023-05-18T16:56:23.400Z,99932.31
2023-05-18T16:58:51.306Z,99933.63
2023-05-18T17:03:56.089Z,99944.38
2023-05-18T17:06:24.523Z,99945.56
2023-05-18T17:08:52.167Z,99944.66
2023-05-18T17:11:20.191Z,99952.78
2023-05-18T17:13:48.108Z,99948.81
2023-05-18T17:16:15.875Z,99944.25
2023-05-18T17:18:43.931Z,99939.87
2023-05-18T17:21:13.821Z,99935.31
2023-05-18T17:23:41.499Z,99940.72
2023-05-18T17:26:09.500Z,99948.28
2023-05-18T17:28:37.288Z,99958.34
2023-05-18T17:31:04.922Z,99961.25
2023-05-18T17:33:32.937Z,99960.22
2023-05-18T17:36:00.701Z,99958.56
2023-05-18T17:38:28.307Z,99944.78
2023-05-18T17:40:56.523Z,99942.97
2023-05-18T17:43:24.126Z,99941.81
2023-05-18T17:45:51.843Z,99956.28
2023-05-18T17:48:19.964Z,99966.75
2023-05-18T17:50:47.946Z,99983.22
2023-05-18T17:53:15.755Z,99970.87
2023-05-18T17:55:44.276Z,99964.00
2023-05-18T17:58:12.273Z,99974.25
2023-05-18T18:00:40.318Z,99961.19
2023-05-18T18:03:08.454Z,99980.72
2023-05-18T18:05:36.370Z,99981.22
2023-05-18T18:08:04.134Z,99975.38
2023-05-18T18:10:32.442Z,99979.63
2023-05-18T18:13:00.495Z,99970.13
2023-05-18T18:15:28.339Z,99973.09
2023-05-18T18:17:56.695Z,99970.59
2023-05-18T18:20:24.587Z,99974.56
2023-05-18T18:22:52.831Z,99976.00
2023-05-18T18:25:24.173Z,99970.72
2023-05-18T18:27:51.673Z,99972.84
2023-05-18T18:30:19.636Z,99977.41
2023-05-18T18:32:48.056Z,99983.16
2023-05-18T18:35:16.173Z,99982.31
2023-05-18T18:37:44.226Z,99991.47
2023-05-18T18:40:12.562Z,99989.75
2023-05-18T18:42:40.784Z,99985.69
2023-05-18T18:45:08.872Z,99985.31
2023-05-18T18:47:37.281Z,99995.94
2023-05-18T18:50:06.022Z,99995.63
2023-05-18T18:52:34.736Z,99996.50
2023-05-18T18:55:03.576Z,100003.59
2023-05-18T18:57:31.905Z,100006.44
2023-05-18T18:59:59.486Z,100005.94
2023-05-18T19:02:27.781Z,100011.34
2023-05-18T19:04:55.628Z,100013.91
2023-05-18T19:07:23.325Z,100016.44
2023-05-18T19:09:51.554Z,100012.59
2023-05-18T19:12:19.260Z,100020.69
2023-05-18T19:14:47.042Z,100022.38
2023-05-18T19:17:15.446Z,100030.84
2023-05-18T19:19:43.437Z,100026.91
2023-05-18T19:22:11.145Z,100030.75
2023-05-18T19:24:39.135Z,100035.91
2023-05-18T19:27:07.019Z,100038.81
2023-05-18T19:29:34.735Z,100039.97
2023-05-18T19:32:03.671Z,100050.56
2023-05-18T19:34:31.564Z,100044.37
2023-05-18T19:36:59.821Z,100052.50
2023-05-18T19:39:28.219Z,100056.41
2023-05-18T19:41:56.093Z,100062.44
2023-05-18T19:44:23.759Z,100055.69
2023-05-18T19:46:51.727Z,100060.47
2023-05-18T19:49:19.431Z,100067.47
2023-05-18T19:51:47.127Z,100077.81
2023-05-18T19:54:15.210Z,100072.06
2023-05-18T19:56:43.248Z,100072.56
2023-05-18T19:59:10.938Z,100078.28
2023-05-18T20:01:39.036Z,100077.97
2023-05-18T20:04:07.133Z,100083.81
2023-05-18T20:06:34.947Z,100075.59
2023-05-18T20:09:02.683Z,100081.00
2023-05-18T20:11:30.575Z,100090.72
2023-05-18T20:13:58.817Z,100099.34
2023-05-18T20:16:26.936Z,100099.59
2023-05-18T20:18:54.949Z,100091.16
2023-05-18T20:21:22.705Z,100095.28
2023-05-18T20:23:50.345Z,100097.38
2023-05-18T20:26:18.253Z,100098.16
2023-05-18T20:28:45.835Z,100096.12
2023-05-18T20:31:13.515Z,100102.84
2023-05-18T20:33:41.457Z,100101.28
2023-05-18T20:36:09.212Z,100109.59
2023-05-18T20:38:36.907Z,100104.44
2023-05-18T20:41:04.849Z,100103.12
2023-05-18T20:43:32.504Z,100101.84
2023-05-18T20:46:00.564Z,100106.69
2023-05-18T20:48:28.606Z,100109.03
2023-05-18T20:50:56.420Z,100105.06
2023-05-18T20:53:24.211Z,100104.75
2023-05-18T20:55:52.127Z,100112.56
2023-05-18T20:58:19.854Z,100102.94
2023-05-18T21:00:47.477Z,100106.09
2023-05-18T21:03:15.517Z,100100.34
2023-05-18T21:05:43.453Z,100100.56
2023-05-18T21:08:11.063Z,100107.84
2023-05-18T21:10:39.114Z,100102.28
2023-05-18T21:13:06.688Z,100109.50
2023-05-18T21:15:34.435Z,100106.69
2023-05-18T21:18:03.231Z,100109.81
2023-05-18T21:20:31.976Z,100116.47
2023-05-18T21:22:59.747Z,100121.25
2023-05-18T21:25:27.793Z,100113.38
2023-05-18T21:27:55.481Z,100115.66
2023-05-18T21:30:23.252Z,100113.66
2023-05-18T21:32:51.262Z,100120.78
2023-05-18T21:35:18.954Z,100117.16
2023-05-18T21:37:46.678Z,100111.44
2023-05-18T21:40:14.614Z,100119.66
2023-05-18T21:42:42.293Z,100120.50
2023-05-18T21:45:11.201Z,100115.16
2023-05-18T21:47:39.387Z,100118.66
2023-05-18T21:50:07.561Z,100112.28
2023-05-18T21:52:35.547Z,100123.59
2023-05-18T21:55:03.815Z,100111.31
2023-05-18T21:57:32.768Z,100115.63
2023-05-18T22:00:00.905Z,100116.03
2023-05-18T22:02:28.935Z,100118.06
2023-05-18T22:04:57.094Z,100121.56
2023-05-18T22:07:24.703Z,100122.25
2023-05-18T22:09:52.376Z,100125.25
2023-05-18T22:12:21.073Z,100123.84
2023-05-18T22:14:48.710Z,100123.47
2023-05-18T22:17:16.373Z,100127.44
2023-05-18T22:19:44.328Z,100125.41
2023-05-18T22:22:19.442Z,100122.84
2023-05-18T22:25:00.312Z,100123.06
2023-05-18T22:27:27.954Z,100116.97
2023-05-18T22:29:55.990Z,100113.06
2023-05-18T22:32:24.313Z,100122.78
2023-05-18T22:34:52.225Z,100118.78
2023-05-18T22:37:19.923Z,100123.66
2023-05-18T22:39:47.851Z,100117.47
2023-05-18T22:42:15.514Z,100116.44
2023-05-18T22:44:43.382Z,100118.97
2023-05-18T22:47:11.383Z,100133.16
2023-05-18T22:49:39.068Z,100126.03
2023-05-18T22:52:07.172Z,100127.56
2023-05-18T22:54:35.162Z,100126.34
2023-05-18T22:57:02.844Z,100128.22
2023-05-18T22:59:30.814Z,100109.53
2023-05-18T23:01:59.035Z,100121.25
2023-05-18T23:04:26.778Z,100116.38
2023-05-18T23:06:54.568Z,100107.00
2023-05-18T23:09:25.484Z,100113.28
2023-05-18T23:11:53.941Z,100111.59
2023-05-18T23:14:22.585Z,100106.75
2023-05-18T23:16:54.802Z,100103.59
2023-05-18T23:19:23.473Z,100119.06
2023-05-18T23:21:51.268Z,100119.25
2023-05-18T23:24:18.894Z,100123.25
2023-05-18T23:26:46.827Z,100121.87
2023-05-18T23:29:14.561Z,100132.94
2023-05-18T23:31:42.479Z,100132.16
2023-05-18T23:34:10.897Z,100131.13
2023-05-18T23:36:39.395Z,100129.34
2023-05-18T23:39:07.380Z,100136.69
2023-05-18T23:41:35.974Z,100140.09
2023-05-18T23:44:04.110Z,100124.50
2023-05-18T23:46:31.950Z,100111.66
2023-05-18T23:49:00.127Z,100110.41
2023-05-18T23:51:29.798Z,100117.84
2023-05-18T23:53:58.875Z,100110.59
2023-05-18T23:56:27.070Z,100119.16
2023-05-18T23:58:55.000Z,100117.09
